Glenwood Springs, CO (81601)

12:49 PM MDT on July 05, 2015 (GMT -0600)
Elk Springs | | Change Station
CLOSE
Current Station
Personal Weather Station
Location: Glenwood Springs, CO
Elevation: 6988 ft
Nearby Weather Stations

Elev 6988 ft 39.48 °N, 107.25 °W | Updated 7 minutes ago

Overcast
Overcast
60.8 °F
Feels Like 60.8 °F
N
8.9
Wind Variable Wind from NNW

Today
High -- | Low -- °F
--% Chance of Precip.
Yesterday
High -- | Low -- °F
Precip. -- in
5:47 AM 8:39 PM
Waning Gibbous, 83% visible
Pressure 29.95 in
Visibility 10.0 miles
Clouds Overcast 7000 ft
Dew Point 58 °F
Humidity 89%
Rainfall 0.02 in
Snow Depth Not available.
UV 4 out of 12
Pollen .50 out of 12
Air Quality Not available.
Flu Activity Not available.
METAR KRIL 051753Z AUTO 28009KT 10SM -RA OVC070 21/15 A3014 RMK AO2 RAB12 SLP141 P0001 60001 T02110150 10217 20172 55003

More Conditions Fewer Conditions

Pressure 29.95 in
Visibility 10.0 miles
Clouds Overcast 7000 ft
Dew Point 58 °F
Humidity 89%
Rainfall 0.02 in
Snow Depth Not available.
UV 4 out of 12
Pollen .50 out of 12
Air Quality Not available.
Flu Activity Not available.
METAR KRIL 051753Z AUTO 28009KT 10SM -RA OVC070 21/15 A3014 RMK AO2 RAB12 SLP141 P0001 60001 T02110150 10217 20172 55003

More Conditions Fewer Conditions

10-Day Weather Forecast

×

Almanac

Astronomy

Jul. 05, 2015 Rise Set
Actual Time
Civil Twilight
Nautical Twilight
Astronomical Twilight
Moon
Length of Visible Light
Length of Day
Tomorrow will be .
, % of the Moon is Illuminated

Today's Extremes

State Highs State Lows

Community

WunderPhotos

Upload Photos

1,835,346 photos uploaded!

WunderBlogs® & News

Nearby

Air Quality

  Air Quality AQ Index Pollutant
Not available.

Snow Depth

Station Depth Elevation

Earthquake Activity

City Distance Mag. Time & Date
Minimum magnitude displayed is 2.5.

Coastal Water Temperatures

Place Temperature

Stations

Nearby Weather Stations

Station Location Temp. Windchill Dew Point Humidity Wind Precip. Elev Updated Type